Time;durP1;ratioP1;P1;durP2;ratioP2;P2;SDS_P1;SDS_P2;PMS_P1;PMS_P2;Temp;Humidity;BMP_temperature;BMP_pressure;BME280_temperature;BME280_humidity;BME280_pressure;Samples;Min_cycle;Max_cycle;Signal;HPM_P1;HPM_P2
2023/12/12 00:00:15;;;;;;;14.50;3.90;;;9.50;60.50;;;;;;5091979;28;20389;-73
2023/12/12 00:02:40;;;;;;;14.75;4.10;;;9.40;61.30;;;;;;5091736;28;20390;-73
2023/12/12 00:05:06;;;;;;;14.93;3.70;;;9.40;61.50;;;;;;5094492;28;20400;-72
2023/12/12 00:07:31;;;;;;;16.95;3.80;;;9.50;59.80;;;;;;5094396;28;20477;-74
2023/12/12 00:09:57;;;;;;;13.70;3.90;;;9.40;60.30;;;;;;5091904;28;20740;-73
2023/12/12 00:12:23;;;;;;;12.20;4.10;;;9.40;60.10;;;;;;5074128;28;20915;-74
2023/12/12 00:14:49;;;;;;;15.98;4.00;;;9.40;60.40;;;;;;5092129;28;20891;-74
2023/12/12 00:17:14;;;;;;;15.32;4.20;;;9.30;61.80;;;;;;5092160;28;20389;-74
2023/12/12 00:19:42;;;;;;;13.93;3.90;;;9.30;64.40;;;;;;5091289;28;20396;-74
2023/12/12 00:22:08;;;;;;;17.55;3.50;;;9.40;63.00;;;;;;5091839;28;20904;-73
2023/12/12 00:24:33;;;;;;;15.10;4.00;;;9.50;61.00;;;;;;5091821;28;20401;-75
2023/12/12 00:26:59;;;;;;;19.35;4.43;;;9.60;61.10;;;;;;5092116;28;20390;-73
2023/12/12 00:29:24;;;;;;;17.00;3.97;;;9.50;61.80;;;;;;5091457;28;20460;-75
2023/12/12 00:31:50;;;;;;;23.27;4.83;;;9.60;62.00;;;;;;5092138;28;20410;-74
2023/12/12 00:34:15;;;;;;;14.80;3.90;;;9.50;62.40;;;;;;5073786;28;20398;-74
2023/12/12 00:36:41;;;;;;;14.88;4.47;;;9.50;64.10;;;;;;5093032;28;20388;-73
2023/12/12 00:39:07;;;;;;;19.02;4.10;;;9.50;64.20;;;;;;5091565;28;20400;-74
2023/12/12 00:41:34;;;;;;;14.88;3.92;;;9.40;64.70;;;;;;5092092;28;21005;-73
2023/12/12 00:43:59;;;;;;;16.40;3.90;;;9.50;64.80;;;;;;5091198;28;20402;-75
2023/12/12 00:46:25;;;;;;;15.67;4.20;;;9.60;64.10;;;;;;5091403;28;20393;-73
2023/12/12 00:48:51;;;;;;;15.87;3.83;;;9.60;63.50;;;;;;5091667;28;20390;-72
2023/12/12 00:51:16;;;;;;;15.23;4.30;;;9.60;64.50;;;;;;5093509;28;20398;-75
2023/12/12 00:53:42;;;;;;;19.53;4.57;;;9.70;64.60;;;;;;5095011;28;20457;-76
2023/12/12 00:56:08;;;;;;;18.63;4.85;;;9.60;65.90;;;;;;5091833;28;20390;-73
2023/12/12 00:58:33;;;;;;;19.60;4.43;;;9.70;65.10;;;;;;5094977;28;20396;-73
2023/12/12 01:00:59;;;;;;;17.83;4.37;;;9.70;64.50;;;;;;5076031;28;20775;-73
2023/12/12 01:03:24;;;;;;;22.50;5.30;;;9.70;64.70;;;;;;5095858;28;20409;-74
2023/12/12 01:05:50;;;;;;;20.15;4.55;;;9.70;65.80;;;;;;5091891;28;20461;-74
2023/12/12 01:08:15;;;;;;;21.33;4.40;;;9.70;66.60;;;;;;5091065;28;20393;-74
2023/12/12 01:10:41;;;;;;;20.13;5.20;;;9.80;66.20;;;;;;5090777;28;20737;-73
2023/12/12 01:13:06;;;;;;;18.97;5.03;;;9.70;66.40;;;;;;5092498;28;20886;-74
2023/12/12 01:15:32;;;;;;;20.50;4.80;;;9.70;67.10;;;;;;5090631;28;20955;-75
2023/12/12 01:17:58;;;;;;;34.33;6.10;;;9.70;67.10;;;;;;5090598;28;20464;-73
2023/12/12 01:20:23;;;;;;;21.05;5.10;;;9.80;66.80;;;;;;5090460;28;20390;-74
2023/12/12 01:22:49;;;;;;;21.90;4.97;;;9.60;68.90;;;;;;5090726;28;20465;-74
2023/12/12 01:25:14;;;;;;;25.20;4.93;;;9.60;68.90;;;;;;5090206;28;20419;-75
2023/12/12 01:27:40;;;;;;;24.02;5.32;;;9.70;68.90;;;;;;5090734;28;20382;-75
2023/12/12 01:30:06;;;;;;;22.92;4.93;;;9.70;69.30;;;;;;5090715;28;20374;-74
2023/12/12 01:32:32;;;;;;;24.25;5.30;;;9.60;70.10;;;;;;5090845;28;20374;-73
2023/12/12 01:34:57;;;;;;;22.13;5.43;;;9.50;71.30;;;;;;5090947;28;20446;-74
2023/12/12 01:37:23;;;;;;;20.98;4.80;;;9.60;70.80;;;;;;5090863;28;20431;-74
2023/12/12 01:39:48;;;;;;;25.98;5.43;;;9.60;70.20;;;;;;5090769;28;20397;-74
2023/12/12 01:42:14;;;;;;;26.47;5.37;;;9.60;70.50;;;;;;5090771;28;20850;-74
2023/12/12 01:44:39;;;;;;;15.07;5.07;;;9.50;71.80;;;;;;5072712;28;20744;-73
2023/12/12 01:47:06;;;;;;;25.00;5.30;;;9.50;71.90;;;;;;5090958;28;20895;-73
2023/12/12 01:49:31;;;;;;;26.67;5.40;;;9.30;73.90;;;;;;5090562;28;20868;-73
2023/12/12 01:51:57;;;;;;;25.08;5.40;;;9.10;76.20;;;;;;5090524;28;20392;-73
2023/12/12 01:54:23;;;;;;;23.43;4.70;;;9.00;78.90;;;;;;5090326;28;20911;-75
2023/12/12 01:56:52;;;;;;;27.40;6.33;;;8.90;81.10;;;;;;5090900;28;20456;-74
2023/12/12 01:59:19;;;;;;;24.38;5.38;;;8.90;81.00;;;;;;5090872;28;20389;-73
2023/12/12 02:01:45;;;;;;;23.33;5.43;;;8.80;82.20;;;;;;5090729;28;20382;-74
2023/12/12 02:04:11;;;;;;;19.10;5.20;;;8.70;83.40;;;;;;5073958;28;20578;-74
2023/12/12 02:06:38;;;;;;;21.92;4.70;;;8.80;83.60;;;;;;5076177;28;20872;-74
2023/12/12 02:09:04;;;;;;;27.92;6.15;;;8.60;84.80;;;;;;5094036;28;20374;-72
2023/12/12 02:11:30;;;;;;;23.55;5.70;;;8.60;85.90;;;;;;5076417;28;20382;-73
2023/12/12 02:13:55;;;;;;;35.87;7.17;;;8.60;86.40;;;;;;5094183;28;20508;-76
2023/12/12 02:16:21;;;;;;;22.52;5.05;;;8.60;86.70;;;;;;5075984;28;20467;-74
2023/12/12 02:18:46;;;;;;;34.85;5.70;;;8.70;86.90;;;;;;5094025;28;20370;-74
2023/12/12 02:21:19;;;;;;;23.77;5.40;;;8.60;86.70;;;;;;5115357;22;20902;-72
2023/12/12 02:23:47;;;;;;;24.35;4.95;;;8.70;87.70;;;;;;5113933;28;20436;-72
2023/12/12 02:26:12;;;;;;;33.25;5.82;;;8.70;87.10;;;;;;5095628;28;20406;-72
2023/12/12 02:28:39;;;;;;;16.73;5.03;;;8.80;85.90;;;;;;5113851;28;20372;-72
2023/12/12 02:31:05;;;;;;;28.70;5.00;;;8.90;84.60;;;;;;5113767;28;20384;-72
2023/12/12 02:33:30;;;;;;;22.88;4.90;;;8.80;85.40;;;;;;5113487;28;20478;-73
2023/12/12 02:35:56;;;;;;;28.35;5.68;;;8.90;84.00;;;;;;5113816;28;20384;-72
2023/12/12 02:38:21;;;;;;;26.90;5.95;;;8.90;83.40;;;;;;5113425;28;20388;-72
2023/12/12 02:40:47;;;;;;;26.50;5.50;;;9.00;83.40;;;;;;5113743;28;20796;-72
2023/12/12 02:43:13;;;;;;;23.50;5.77;;;8.90;83.50;;;;;;5113366;28;20377;-72
2023/12/12 02:45:38;;;;;;;24.93;5.87;;;9.00;82.80;;;;;;5113904;28;20384;-71
2023/12/12 02:48:04;;;;;;;37.43;6.00;;;9.10;82.50;;;;;;5113342;28;20736;-71
2023/12/12 02:50:29;;;;;;;30.97;5.60;;;9.10;82.30;;;;;;5113639;28;20776;-71
2023/12/12 02:52:55;;;;;;;20.60;5.37;;;8.90;82.60;;;;;;5113458;28;20792;-71
2023/12/12 02:55:20;;;;;;;33.65;5.40;;;9.10;80.70;;;;;;5113142;28;20487;-71
2023/12/12 02:57:46;;;;;;;27.63;5.90;;;9.00;82.30;;;;;;5113618;28;20769;-71
2023/12/12 03:00:12;;;;;;;31.60;5.53;;;8.90;84.20;;;;;;5113230;28;20391;-72
2023/12/12 03:02:37;;;;;;;28.02;5.75;;;9.10;83.30;;;;;;5113100;28;20746;-71
2023/12/12 03:05:04;;;;;;;31.08;5.60;;;9.10;81.90;;;;;;5112950;28;20866;-72
2023/12/12 03:07:30;;;;;;;29.30;5.60;;;9.10;81.90;;;;;;5113523;28;20382;-72
2023/12/12 03:09:55;;;;;;;32.75;5.55;;;9.10;81.80;;;;;;5112844;28;20369;-71
2023/12/12 03:12:21;;;;;;;30.67;5.28;;;9.10;82.10;;;;;;5112890;28;20377;-72
2023/12/12 03:14:47;;;;;;;44.78;7.75;;;9.10;82.30;;;;;;5113267;28;20373;-71
2023/12/12 03:17:13;;;;;;;29.52;6.20;;;9.00;83.00;;;;;;5095178;28;20774;-71
2023/12/12 03:19:38;;;;;;;30.73;6.00;;;9.00;83.70;;;;;;5113507;28;20380;-71
2023/12/12 03:22:04;;;;;;;33.50;6.33;;;8.80;85.40;;;;;;5112779;28;20987;-72
2023/12/12 03:24:29;;;;;;;26.03;6.50;;;8.70;87.90;;;;;;5113072;28;20461;-72
2023/12/12 03:26:55;;;;;;;32.67;6.50;;;8.70;88.30;;;;;;5113521;28;20380;-71
2023/12/12 03:29:20;;;;;;;34.77;6.53;;;8.70;88.70;;;;;;5119587;28;20383;-72
2023/12/12 03:31:46;;;;;;;41.60;6.50;;;8.70;90.40;;;;;;5124885;28;20461;-74
2023/12/12 03:34:12;;;;;;;33.05;6.00;;;8.60;91.60;;;;;;5112769;28;20858;-72
2023/12/12 03:36:42;;;;;;;38.22;6.50;;;8.60;92.20;;;;;;5112727;28;20434;-72
2023/12/12 03:39:08;;;;;;;32.38;6.90;;;8.50;93.90;;;;;;5111807;28;20468;-72
2023/12/12 03:41:33;;;;;;;35.80;7.15;;;8.50;94.70;;;;;;5093712;28;20422;-71
2023/12/12 03:43:59;;;;;;;35.10;6.77;;;8.40;95.70;;;;;;5093389;28;20392;-72
2023/12/12 03:46:24;;;;;;;32.90;7.27;;;8.40;97.10;;;;;;5093652;28;20380;-72
2023/12/12 03:48:50;;;;;;;42.57;7.40;;;8.30;97.00;;;;;;5111866;28;20403;-72
2023/12/12 03:51:16;;;;;;;45.73;7.10;;;8.20;98.50;;;;;;5111702;28;20384;-72
2023/12/12 03:53:41;;;;;;;29.77;6.57;;;8.10;99.90;;;;;;5111504;28;20376;-72
2023/12/12 03:56:07;;;;;;;44.30;8.03;;;7.90;99.90;;;;;;5111782;28;20806;-72
2023/12/12 03:58:33;;;;;;;37.63;7.50;;;7.90;99.90;;;;;;5111746;28;20735;-72
2023/12/12 04:00:59;;;;;;;41.72;7.70;;;7.80;99.90;;;;;;5112431;28;20392;-72
2023/12/12 04:03:24;;;;;;;43.13;8.50;;;7.80;99.90;;;;;;5114382;28;20870;-72
2023/12/12 04:05:50;;;;;;;40.42;8.00;;;7.80;99.90;;;;;;5113928;28;20383;-72
2023/12/12 04:08:16;;;;;;;34.28;8.23;;;7.80;99.90;;;;;;5113825;28;20384;-72
2023/12/12 04:10:41;;;;;;;34.40;8.10;;;7.80;99.90;;;;;;5113839;28;20372;-72
2023/12/12 04:13:07;;;;;;;34.78;6.68;;;7.80;99.90;;;;;;5112333;28;20377;-72
2023/12/12 04:15:32;;;;;;;36.63;7.23;;;7.80;99.90;;;;;;5112155;28;20376;-72
2023/12/12 04:17:58;;;;;;;38.87;7.07;;;7.80;99.90;;;;;;5112000;28;20885;-72
2023/12/12 04:20:24;;;;;;;48.03;7.93;;;7.90;99.90;;;;;;5112411;28;20887;-72
2023/12/12 04:22:49;;;;;;;40.87;8.00;;;7.80;99.90;;;;;;5112480;28;20369;-72
2023/12/12 04:25:15;;;;;;;39.10;7.60;;;7.70;99.90;;;;;;5111644;28;20468;-72
2023/12/12 04:27:40;;;;;;;40.42;6.65;;;7.60;99.90;;;;;;5113546;28;20372;-72
2023/12/12 04:30:06;;;;;;;37.65;7.80;;;7.60;99.90;;;;;;5114855;28;20381;-72
2023/12/12 04:32:33;;;;;;;30.60;6.65;;;7.80;99.90;;;;;;5114202;28;20762;-72
2023/12/12 04:35:04;;;;;;;31.55;6.55;;;7.80;99.90;;;;;;5114282;28;20777;-72
2023/12/12 04:37:30;;;;;;;24.52;6.30;;;7.80;99.90;;;;;;5114482;28;20388;-72
2023/12/12 04:39:55;;;;;;;27.60;6.82;;;7.70;99.90;;;;;;5113841;28;20740;-72
2023/12/12 04:42:23;;;;;;;33.88;6.95;;;7.70;99.90;;;;;;5113386;28;20388;-72
2023/12/12 04:44:48;;;;;;;36.05;6.85;;;7.70;99.90;;;;;;5111716;28;20501;-72
2023/12/12 04:47:14;;;;;;;27.83;7.20;;;7.70;99.90;;;;;;5108527;28;20384;-72
2023/12/12 04:49:39;;;;;;;31.90;6.70;;;7.80;99.90;;;;;;5100471;28;20870;-72
2023/12/12 04:52:05;;;;;;;32.20;6.40;;;7.70;99.90;;;;;;5110853;28;20364;-72
2023/12/12 04:54:31;;;;;;;36.90;6.43;;;7.70;99.90;;;;;;5095009;28;20456;-72
2023/12/12 04:56:56;;;;;;;31.70;6.30;;;7.80;99.90;;;;;;5108516;28;20372;-72
2023/12/12 04:59:22;;;;;;;31.20;6.67;;;7.70;99.90;;;;;;5110565;28;20407;-72
2023/12/12 05:01:48;;;;;;;36.20;7.50;;;7.60;99.90;;;;;;5102099;28;20409;-73
2023/12/12 05:04:14;;;;;;;32.97;7.10;;;7.60;99.90;;;;;;5089947;28;20426;-72
2023/12/12 05:06:40;;;;;;;26.90;6.82;;;7.60;99.90;;;;;;5090291;28;20859;-73
2023/12/12 05:09:06;;;;;;;36.57;7.43;;;7.60;99.90;;;;;;5104449;28;20384;-72
2023/12/12 05:11:31;;;;;;;32.17;7.23;;;7.70;99.90;;;;;;5110721;28;20471;-72
2023/12/12 05:13:56;;;;;;;26.40;5.73;;;7.80;99.90;;;;;;5110175;28;20424;-73
2023/12/12 05:16:23;;;;;;;31.20;7.37;;;7.80;99.90;;;;;;5109687;28;20886;-73
2023/12/12 05:18:48;;;;;;;34.58;6.95;;;7.80;99.90;;;;;;5109129;28;20462;-73
2023/12/12 05:21:14;;;;;;;36.60;6.30;;;7.90;99.90;;;;;;5109811;28;20479;-73
2023/12/12 05:23:41;;;;;;;31.08;6.60;;;7.90;99.90;;;;;;5110663;28;20404;-73
2023/12/12 05:26:06;;;;;;;22.52;5.63;;;7.90;99.90;;;;;;5110298;28;20376;-73
2023/12/12 05:28:32;;;;;;;28.30;6.30;;;7.90;99.90;;;;;;5110420;28;20923;-73
2023/12/12 05:30:58;;;;;;;26.98;6.50;;;8.00;99.90;;;;;;5110496;28;20970;-73
2023/12/12 05:33:23;;;;;;;24.15;6.78;;;8.00;99.90;;;;;;5110353;28;20471;-73
2023/12/12 05:35:49;;;;;;;26.52;6.95;;;8.00;99.30;;;;;;5110236;28;20381;-72
2023/12/12 05:38:15;;;;;;;25.08;5.95;;;8.00;99.10;;;;;;5111087;28;20988;-72
2023/12/12 05:40:40;;;;;;;26.48;6.60;;;8.00;99.70;;;;;;5114149;28;20380;-72
2023/12/12 05:43:06;;;;;;;26.77;6.55;;;8.00;99.50;;;;;;5114180;28;20434;-73
2023/12/12 05:45:32;;;;;;;29.92;5.82;;;8.10;98.60;;;;;;5114270;28;20431;-72
2023/12/12 05:47:58;;;;;;;30.75;6.03;;;8.10;97.70;;;;;;5114108;28;20402;-72
2023/12/12 05:50:24;;;;;;;32.03;6.67;;;8.10;96.80;;;;;;5113960;28;20380;-72
2023/12/12 05:52:50;;;;;;;22.75;5.30;;;8.10;97.40;;;;;;5114474;28;20404;-72
2023/12/12 05:55:16;;;;;;;33.95;7.38;;;8.10;96.40;;;;;;5114399;28;20414;-72
2023/12/12 05:57:42;;;;;;;32.45;7.32;;;8.10;96.20;;;;;;5095289;28;20500;-72
2023/12/12 06:00:08;;;;;;;27.42;6.45;;;8.20;94.50;;;;;;5113650;28;20412;-72
2023/12/12 06:02:33;;;;;;;34.72;6.78;;;8.10;94.90;;;;;;5095229;28;20419;-72
2023/12/12 06:04:59;;;;;;;26.63;6.20;;;8.20;94.00;;;;;;5113467;28;20923;-72
2023/12/12 06:07:25;;;;;;;33.72;7.30;;;8.40;91.10;;;;;;5113364;28;20869;-72
2023/12/12 06:09:50;;;;;;;30.58;6.75;;;8.20;91.40;;;;;;5113482;28;20404;-72
2023/12/12 06:12:17;;;;;;;24.48;6.53;;;8.20;93.00;;;;;;5095473;28;20437;-71
2023/12/12 06:14:44;;;;;;;24.75;6.05;;;8.20;91.40;;;;;;5113515;28;20387;-72
2023/12/12 06:17:11;;;;;;;33.50;6.60;;;8.20;90.00;;;;;;5113588;28;21010;-72
2023/12/12 06:19:37;;;;;;;26.63;6.80;;;8.20;92.00;;;;;;5115285;28;20414;-71
2023/12/12 06:22:03;;;;;;;27.92;6.80;;;8.30;89.00;;;;;;5113448;28;20435;-73
2023/12/12 06:24:28;;;;;;;25.30;6.40;;;8.30;89.30;;;;;;5113167;28;20404;-73
2023/12/12 06:26:55;;;;;;;24.60;6.67;;;8.30;89.20;;;;;;5094921;28;20384;-71
2023/12/12 06:29:20;;;;;;;26.80;6.40;;;8.20;90.10;;;;;;5113148;28;20380;-73
2023/12/12 06:31:46;;;;;;;32.53;6.10;;;8.40;88.20;;;;;;5113384;28;20392;-73
2023/12/12 06:34:11;;;;;;;27.57;7.00;;;8.50;84.70;;;;;;5113432;28;20487;-71
2023/12/12 06:36:37;;;;;;;27.83;6.37;;;8.30;87.60;;;;;;5113306;28;20773;-71
2023/12/12 06:39:03;;;;;;;24.83;6.55;;;8.20;88.60;;;;;;5112767;28;20385;-72
2023/12/12 06:41:29;;;;;;;25.58;7.00;;;8.20;89.30;;;;;;5113578;28;20406;-72
2023/12/12 06:43:54;;;;;;;31.30;6.30;;;8.20;89.40;;;;;;5113676;28;20411;-73
2023/12/12 06:46:20;;;;;;;28.23;6.93;;;8.20;89.70;;;;;;5129652;27;20384;-73
2023/12/12 06:48:46;;;;;;;19.23;6.20;;;8.20;90.10;;;;;;5097471;28;20407;-73
2023/12/12 06:51:12;;;;;;;25.17;6.53;;;8.30;87.20;;;;;;5114569;28;20464;-73
2023/12/12 06:53:37;;;;;;;32.00;7.47;;;8.30;87.80;;;;;;5115356;28;20963;-73
2023/12/12 06:56:03;;;;;;;31.40;7.40;;;8.30;87.50;;;;;;5115722;28;20429;-73
2023/12/12 06:58:29;;;;;;;27.10;5.80;;;8.30;87.50;;;;;;5114903;28;20380;-72
2023/12/12 07:00:55;;;;;;;23.83;6.20;;;8.30;86.50;;;;;;5113364;28;20384;-72
2023/12/12 07:03:21;;;;;;;27.88;6.82;;;8.40;87.20;;;;;;5115545;28;20475;-73
2023/12/12 07:05:51;;;;;;;30.92;6.45;;;8.30;88.10;;;;;;5112763;28;20388;-73
2023/12/12 07:08:19;;;;;;;28.88;5.85;;;8.30;87.00;;;;;;5113361;28;20373;-73
2023/12/12 07:10:46;;;;;;;27.10;5.93;;;8.40;84.90;;;;;;5112852;28;20748;-72
2023/12/12 07:13:12;;;;;;;25.00;6.47;;;8.40;84.80;;;;;;5113108;28;20412;-72
2023/12/12 07:15:38;;;;;;;19.88;5.75;;;8.40;85.90;;;;;;5094845;28;20384;-72
2023/12/12 07:18:09;;;;;;;27.85;6.70;;;8.50;85.20;;;;;;5113364;28;20388;-72
2023/12/12 07:20:36;;;;;;;27.98;6.55;;;8.50;83.00;;;;;;5094656;28;20424;-73
2023/12/12 07:23:02;;;;;;;30.10;7.57;;;8.40;83.30;;;;;;5112806;28;20420;-73
2023/12/12 07:25:27;;;;;;;25.90;6.80;;;8.40;85.00;;;;;;5112968;28;20904;-73
2023/12/12 07:27:53;;;;;;;33.13;6.60;;;8.40;84.70;;;;;;5111790;28;20462;-73
2023/12/12 07:30:18;;;;;;;26.33;7.10;;;8.40;83.80;;;;;;5112704;28;20455;-73
2023/12/12 07:32:44;;;;;;;28.55;7.00;;;8.40;84.00;;;;;;5112339;28;20384;-73
2023/12/12 07:35:10;;;;;;;26.30;6.40;;;8.50;82.50;;;;;;5113708;28;20380;-73
2023/12/12 07:37:35;;;;;;;27.80;6.63;;;8.60;81.70;;;;;;5112917;28;20392;-73
2023/12/12 07:40:03;;;;;;;26.10;7.47;;;8.60;82.40;;;;;;5112906;28;20398;-72
2023/12/12 07:42:29;;;;;;;28.67;6.30;;;8.60;81.30;;;;;;5112872;28;20381;-72
2023/12/12 07:44:54;;;;;;;27.90;6.97;;;8.60;80.70;;;;;;5112619;28;20407;-73
2023/12/12 07:47:20;;;;;;;26.45;6.38;;;8.70;80.70;;;;;;5095238;28;20844;-73
2023/12/12 07:49:46;;;;;;;31.33;6.53;;;8.70;79.90;;;;;;5113605;28;20388;-74
2023/12/12 07:52:11;;;;;;;38.63;7.10;;;8.70;80.30;;;;;;5113079;28;20372;-72
2023/12/12 07:54:37;;;;;;;40.35;6.70;;;8.70;81.20;;;;;;5112478;28;20422;-73
2023/12/12 07:57:03;;;;;;;32.63;7.15;;;8.70;79.70;;;;;;5112226;28;20957;-73
2023/12/12 07:59:30;;;;;;;29.70;6.90;;;8.70;79.70;;;;;;5111741;28;20459;-73
2023/12/12 08:01:55;;;;;;;28.95;6.18;;;8.90;78.90;;;;;;5094180;28;20418;-72
2023/12/12 08:04:21;;;;;;;36.57;6.67;;;8.90;77.00;;;;;;5111724;28;20404;-73
2023/12/12 08:06:46;;;;;;;28.98;6.60;;;8.90;76.00;;;;;;5111774;28;20384;-72
2023/12/12 08:09:15;;;;;;;22.75;5.15;;;9.00;77.50;;;;;;5111160;28;21295;-73
2023/12/12 08:11:41;;;;;;;24.02;7.10;;;9.10;75.30;;;;;;5114606;28;20384;-74
2023/12/12 08:14:06;;;;;;;26.63;6.40;;;9.00;75.40;;;;;;5111505;28;20372;-72
2023/12/12 08:16:32;;;;;;;30.77;6.93;;;8.90;77.00;;;;;;5111460;28;20383;-72
2023/12/12 08:18:57;;;;;;;29.87;7.37;;;8.90;78.10;;;;;;5111283;28;20381;-72
2023/12/12 08:21:23;;;;;;;37.10;7.20;;;8.90;78.50;;;;;;5111538;22;20522;-75
2023/12/12 08:23:48;;;;;;;33.07;6.30;;;8.90;78.20;;;;;;5072979;28;20746;-75
2023/12/12 08:26:14;;;;;;;32.13;7.20;;;8.90;78.00;;;;;;5073989;28;20406;-76
2023/12/12 08:28:40;;;;;;;27.75;8.00;;;8.90;77.70;;;;;;5074066;28;20861;-75
2023/12/12 08:31:06;;;;;;;32.50;7.30;;;9.00;78.00;;;;;;5073247;28;20462;-75
2023/12/12 08:33:33;;;;;;;26.80;7.00;;;8.90;77.20;;;;;;5073800;28;20386;-75
2023/12/12 08:35:59;;;;;;;27.90;6.95;;;8.90;78.50;;;;;;5074031;28;20390;-75
2023/12/12 08:38:25;;;;;;;28.13;7.43;;;9.10;77.00;;;;;;5072994;28;20380;-76
2023/12/12 08:40:54;;;;;;;25.70;7.20;;;9.10;76.10;;;;;;5074020;28;20379;-76
2023/12/12 08:43:19;;;;;;;31.90;7.32;;;9.00;76.80;;;;;;5056192;28;20746;-76
2023/12/12 08:45:45;;;;;;;33.35;6.85;;;9.00;77.50;;;;;;5074265;28;20869;-77
2023/12/12 08:48:12;;;;;;;31.98;8.40;;;8.90;78.20;;;;;;5073377;28;20406;-76
2023/12/12 08:50:37;;;;;;;27.10;7.73;;;8.90;78.20;;;;;;5075155;28;20391;-76
2023/12/12 08:53:03;;;;;;;29.40;7.50;;;8.90;79.00;;;;;;5075518;28;20765;-75
2023/12/12 08:55:29;;;;;;;32.27;7.90;;;8.90;80.40;;;;;;5076548;28;20391;-76
2023/12/12 08:57:55;;;;;;;35.55;8.00;;;9.00;78.90;;;;;;5078410;28;20387;-75
2023/12/12 09:00:20;;;;;;;33.15;8.50;;;9.00;78.90;;;;;;5082205;28;20390;-75
2023/12/12 09:02:46;;;;;;;36.83;7.88;;;9.20;76.60;;;;;;5080012;28;20410;-75
2023/12/12 09:05:13;;;;;;;27.42;7.43;;;9.40;74.60;;;;;;5074726;28;20406;-75
2023/12/12 09:07:38;;;;;;;27.58;7.20;;;9.50;73.50;;;;;;5073829;28;20391;-75
2023/12/12 09:10:05;;;;;;;28.05;7.15;;;9.50;73.10;;;;;;5073777;28;20375;-75
2023/12/12 09:12:31;;;;;;;31.90;7.00;;;9.70;70.70;;;;;;5074165;28;20380;-76
2023/12/12 09:14:56;;;;;;;22.88;6.60;;;9.80;68.50;;;;;;5075095;28;20415;-73
2023/12/12 09:17:22;;;;;;;30.48;7.25;;;9.80;69.50;;;;;;5080767;28;20407;-76
2023/12/12 09:19:48;;;;;;;19.52;6.30;;;9.80;67.50;;;;;;5054297;28;20400;-76
2023/12/12 09:22:13;;;;;;;28.37;7.10;;;9.90;69.50;;;;;;5072764;28;20808;-76
2023/12/12 09:24:39;;;;;;;26.07;6.20;;;10.10;66.00;;;;;;5073114;28;20399;-76
2023/12/12 09:27:05;;;;;;;22.70;7.00;;;10.10;64.10;;;;;;5074013;28;20387;-75
2023/12/12 09:29:30;;;;;;;23.40;6.00;;;10.20;64.10;;;;;;5074160;28;20467;-75
2023/12/12 09:31:59;;;;;;;28.97;7.73;;;10.30;62.60;;;;;;5076828;28;20464;-76
2023/12/12 09:34:25;;;;;;;25.85;6.30;;;10.30;63.60;;;;;;5082500;28;20410;-75
2023/12/12 09:36:51;;;;;;;20.37;5.80;;;10.40;61.40;;;;;;5062237;28;21076;-76
2023/12/12 09:39:17;;;;;;;30.73;6.70;;;10.60;60.50;;;;;;5073549;28;20929;-76
2023/12/12 09:41:49;;;;;;;24.42;6.25;;;10.50;59.00;;;;;;5073041;28;20426;-76
2023/12/12 09:44:19;;;;;;;26.00;6.45;;;10.40;60.10;;;;;;5072940;28;20438;-75
2023/12/12 09:46:45;;;;;;;24.10;5.60;;;10.50;59.10;;;;;;5072451;28;20379;-77
2023/12/12 09:49:12;;;;;;;25.53;6.60;;;10.50;58.20;;;;;;5074217;28;20391;-75
2023/12/12 09:51:44;;;;;;;29.60;6.30;;;10.30;59.90;;;;;;5074978;28;20390;-75
2023/12/12 09:54:13;;;;;;;25.83;6.20;;;10.30;60.20;;;;;;5075081;28;20888;-75
2023/12/12 09:56:40;;;;;;;27.08;5.68;;;10.30;60.80;;;;;;5075811;28;20746;-76
2023/12/12 09:59:05;;;;;;;20.67;5.40;;;10.50;59.10;;;;;;5055971;28;20450;-75
2023/12/12 10:01:33;;;;;;;27.40;5.72;;;10.40;59.10;;;;;;5073685;28;20415;-77
2023/12/12 10:04:04;;;;;;;25.67;6.35;;;10.50;58.30;;;;;;5058317;28;20422;-76
2023/12/12 10:06:52;;;;;;;22.98;6.30;;;10.40;59.50;;;;;;5075823;28;20734;-75
2023/12/12 10:09:19;;;;;;;27.60;6.00;;;10.40;58.20;;;;;;5073748;28;20380;-75
2023/12/12 10:11:45;;;;;;;28.60;5.97;;;10.50;58.90;;;;;;5074205;28;20383;-76
2023/12/12 10:14:11;;;;;;;21.87;5.60;;;10.50;58.50;;;;;;5073375;28;20474;-77
2023/12/12 10:16:36;;;;;;;23.85;5.47;;;10.40;59.30;;;;;;5072448;28;20410;-75
2023/12/12 10:19:03;;;;;;;24.02;5.95;;;10.50;58.60;;;;;;5073423;28;20390;-73
2023/12/12 10:21:34;;;;;;;21.50;5.90;;;10.70;57.40;;;;;;5072425;28;20398;-76
2023/12/12 10:23:59;;;;;;;19.35;5.10;;;10.70;58.30;;;;;;5054631;28;20423;-75
2023/12/12 10:26:29;;;;;;;18.85;5.50;;;11.00;53.90;;;;;;5076732;28;20384;-75
2023/12/12 10:28:56;;;;;;;24.75;5.30;;;11.00;53.30;;;;;;5076642;28;20383;-75
2023/12/12 10:31:25;;;;;;;18.10;5.05;;;10.90;52.70;;;;;;5076169;28;20379;-74
2023/12/12 10:33:53;;;;;;;30.75;5.82;;;11.00;52.10;;;;;;5057881;28;20387;-76
2023/12/12 10:36:18;;;;;;;21.52;5.20;;;10.90;52.30;;;;;;5076455;28;20383;-74
2023/12/12 10:38:44;;;;;;;21.97;5.60;;;10.90;51.80;;;;;;5076718;28;20380;-74
2023/12/12 10:41:20;;;;;;;20.70;5.10;;;11.00;51.80;;;;;;5058256;28;20380;-74
2023/12/12 10:43:47;;;;;;;18.58;5.40;;;11.10;52.00;;;;;;5076867;28;20399;-77
2023/12/12 10:46:19;;;;;;;14.45;5.03;;;11.30;50.90;;;;;;5059194;28;20380;-76
2023/12/12 10:48:52;;;;;;;23.73;5.28;;;11.50;49.70;;;;;;5076005;28;20372;-75
2023/12/12 10:51:18;;;;;;;20.27;5.07;;;11.70;47.90;;;;;;5076665;28;20866;-75
2023/12/12 10:53:46;;;;;;;21.00;4.90;;;11.70;48.10;;;;;;5059020;28;20383;-76
2023/12/12 10:56:14;;;;;;;25.35;5.07;;;11.70;46.80;;;;;;5076763;28;20380;-76
2023/12/12 10:58:42;;;;;;;22.08;5.05;;;11.70;47.10;;;;;;5076796;28;20754;-76
2023/12/12 11:01:13;;;;;;;15.45;4.60;;;11.60;47.50;;;;;;5076496;28;20384;-77
2023/12/12 11:03:40;;;;;;;24.05;5.72;;;11.60;48.40;;;;;;5077031;28;20380;-75
2023/12/12 11:06:07;;;;;;;18.40;4.65;;;11.70;47.40;;;;;;5058395;28;20433;-74
2023/12/12 11:08:33;;;;;;;18.83;4.80;;;11.60;47.50;;;;;;5078118;28;20505;-75
2023/12/12 11:11:09;;;;;;;15.55;4.88;;;11.60;48.80;;;;;;5077281;28;20429;-74
2023/12/12 11:13:38;;;;;;;21.33;4.80;;;11.80;47.00;;;;;;5081364;28;20404;-75
2023/12/12 11:16:05;;;;;;;21.60;6.07;;;11.60;48.40;;;;;;5090145;28;20379;-74
2023/12/12 11:18:31;;;;;;;27.48;4.57;;;11.60;48.00;;;;;;5084878;28;20413;-75
2023/12/12 11:20:57;;;;;;;23.73;5.20;;;11.40;49.70;;;;;;5076091;28;20491;-75
2023/12/12 11:23:53;;;;;;;20.83;5.00;;;11.50;49.00;;;;;;5075415;28;20750;-75
2023/12/12 11:26:21;;;;;;;17.20;4.20;;;11.60;48.10;;;;;;5076237;28;20392;-75
2023/12/12 11:28:51;;;;;;;24.48;5.43;;;11.60;48.40;;;;;;5078299;28;20850;-74
2023/12/12 11:31:21;;;;;;;14.68;4.22;;;11.50;49.60;;;;;;5076609;28;20467;-75
2023/12/12 11:34:08;;;;;;;24.02;5.13;;;11.50;49.80;;;;;;5057421;28;20384;-75
2023/12/12 11:36:52;;;;;;;22.03;5.70;;;11.20;51.50;;;;;;5072259;28;20376;-77
2023/12/12 11:39:39;;;;;;;22.38;5.35;;;11.30;51.10;;;;;;5072973;28;20775;-75
2023/12/12 11:42:08;;;;;;;17.98;5.03;;;11.30;51.60;;;;;;5063229;28;20444;-75
2023/12/12 11:44:47;;;;;;;18.87;5.40;;;11.40;50.90;;;;;;5077107;28;20415;-73
2023/12/12 11:47:14;;;;;;;21.92;5.57;;;11.30;52.30;;;;;;5082545;28;20383;-76
2023/12/12 11:49:40;;;;;;;19.55;5.78;;;11.50;50.80;;;;;;5079048;28;20383;-77
2023/12/12 11:52:07;;;;;;;18.50;5.10;;;11.60;50.70;;;;;;5073227;28;20742;-74
2023/12/12 11:54:33;;;;;;;21.83;6.38;;;11.50;51.60;;;;;;5054741;28;20408;-76
2023/12/12 11:57:01;;;;;;;17.35;4.65;;;11.50;51.10;;;;;;5054716;28;20893;-75
2023/12/12 11:59:28;;;;;;;17.90;4.60;;;11.40;52.80;;;;;;5072915;28;20392;-74
2023/12/12 12:01:55;;;;;;;16.95;4.65;;;11.20;54.50;;;;;;5072574;28;20838;-75
2023/12/12 12:04:21;;;;;;;12.43;3.33;;;11.30;55.20;;;;;;5071797;28;20482;-77
2023/12/12 12:06:51;;;;;;;15.02;4.10;;;11.20;57.10;;;;;;5071966;28;20375;-75
2023/12/12 12:09:17;;;;;;;15.90;5.50;;;11.20;58.10;;;;;;5072127;28;20376;-75
2023/12/12 12:11:53;;;;;;;17.65;4.75;;;11.30;58.60;;;;;;5071730;28;20799;-75
2023/12/12 12:14:22;;;;;;;17.70;4.50;;;11.50;56.20;;;;;;5071718;28;20888;-75
2023/12/12 12:16:58;;;;;;;14.60;5.00;;;11.00;61.40;;;;;;5074589;28;20472;-76
2023/12/12 12:19:31;;;;;;;17.00;3.75;;;11.10;62.30;;;;;;5073610;28;20379;-75
2023/12/12 12:22:10;;;;;;;23.42;8.25;;;11.00;64.30;;;;;;5073310;28;20889;-75
2023/12/12 12:24:43;;;;;;;15.20;4.50;;;11.10;64.60;;;;;;5071615;28;20434;-74
2023/12/12 12:27:08;;;;;;;23.00;5.07;;;10.80;68.80;;;;;;5071486;28;20449;-75
2023/12/12 12:29:34;;;;;;;19.95;5.22;;;10.70;69.70;;;;;;5071623;28;20380;-74
2023/12/12 12:32:13;;;;;;;15.93;4.32;;;11.00;68.10;;;;;;5072175;28;20398;-75
2023/12/12 12:34:39;;;;;;;12.90;4.22;;;11.10;67.50;;;;;;5071411;28;20525;-76
2023/12/12 12:37:05;;;;;;;16.43;5.40;;;10.80;71.20;;;;;;5071221;28;20496;-76
2023/12/12 12:39:41;;;;;;;14.88;4.60;;;10.60;74.40;;;;;;5071367;28;20437;-75